createdAt,value
2023-05-01T00:01:23.280Z,1.40
2023-05-01T00:04:26.640Z,1.20
2023-05-01T00:07:32.525Z,1.50
2023-05-01T00:10:36.712Z,1.30
2023-05-01T00:13:39.658Z,1.58
2023-05-01T00:16:42.865Z,1.40
2023-05-01T00:19:45.702Z,1.48
2023-05-01T00:22:48.550Z,1.75
2023-05-01T00:25:51.313Z,1.73
2023-05-01T00:28:54.371Z,1.55
2023-05-01T00:31:57.243Z,1.30
2023-05-01T00:35:00.208Z,1.30
2023-05-01T00:38:04.048Z,1.33
2023-05-01T00:41:06.954Z,1.20
2023-05-01T00:44:09.813Z,1.70
2023-05-01T00:47:12.840Z,1.40
2023-05-01T00:50:15.562Z,1.50
2023-05-01T00:53:19.097Z,1.27
2023-05-01T00:56:22.227Z,1.38
2023-05-01T00:59:25.581Z,1.40
2023-05-01T01:02:28.489Z,1.20
2023-05-01T01:05:38.944Z,1.20
2023-05-01T01:09:08.094Z,1.30
2023-05-01T01:12:38.055Z,1.58
2023-05-01T01:15:59.676Z,1.88
2023-05-01T01:19:26.153Z,1.33
2023-05-01T01:22:29.691Z,1.30
2023-05-01T01:26:00.425Z,1.10
2023-05-01T01:29:21.863Z,1.30
2023-05-01T01:32:33.749Z,1.13
2023-05-01T01:35:39.143Z,1.40
2023-05-01T01:38:47.228Z,1.45
2023-05-01T01:41:52.686Z,1.40
2023-05-01T01:45:00.244Z,1.20
2023-05-01T01:48:04.711Z,1.80
2023-05-01T01:51:13.526Z,1.50
2023-05-01T01:54:22.266Z,1.48
2023-05-01T01:57:26.571Z,1.35
2023-05-01T02:00:30.612Z,1.30
2023-05-01T02:03:34.532Z,1.50
2023-05-01T02:06:43.978Z,1.37
2023-05-01T02:09:50.629Z,1.10
2023-05-01T02:12:55.523Z,1.48
2023-05-01T02:16:00.029Z,1.20
2023-05-01T02:19:05.216Z,1.17
2023-05-01T02:22:09.784Z,1.00
2023-05-01T02:25:15.057Z,1.23
2023-05-01T02:28:22.893Z,1.45
2023-05-01T02:31:25.819Z,1.40
2023-05-01T02:34:29.661Z,1.73
2023-05-01T02:37:32.781Z,1.37
2023-05-01T02:40:38.618Z,1.40
2023-05-01T02:43:49.167Z,1.73
2023-05-01T02:46:55.567Z,1.25
2023-05-01T02:50:00.496Z,1.77
2023-05-01T02:53:03.680Z,1.33
2023-05-01T02:56:21.070Z,1.33
2023-05-01T02:59:23.942Z,1.67
2023-05-01T03:02:26.973Z,1.48
2023-05-01T03:05:29.628Z,1.40
2023-05-01T03:08:32.477Z,1.37
2023-05-01T03:11:35.388Z,1.35
2023-05-01T03:14:38.721Z,1.63
2023-05-01T03:17:41.580Z,1.58
2023-05-01T03:20:59.598Z,1.50
2023-05-01T03:24:03.625Z,1.53
2023-05-01T03:27:07.770Z,1.30
2023-05-01T03:30:11.291Z,1.35
2023-05-01T03:33:16.883Z,1.33
2023-05-01T03:36:19.697Z,1.50
2023-05-01T03:39:24.526Z,1.20
2023-05-01T03:42:46.053Z,1.27
2023-05-01T03:45:56.584Z,1.83
2023-05-01T03:48:59.874Z,1.38
2023-05-01T03:52:04.332Z,1.63
2023-05-01T03:55:08.190Z,1.40
2023-05-01T03:58:16.465Z,1.40
2023-05-01T04:01:20.077Z,1.70
2023-05-01T04:04:24.229Z,1.40
2023-05-01T04:07:31.961Z,1.55
2023-05-01T04:10:34.888Z,1.33
2023-05-01T04:13:40.664Z,1.20
2023-05-01T04:16:43.453Z,1.17
2023-05-01T04:19:48.055Z,1.50
2023-05-01T04:22:50.804Z,1.45
2023-05-01T04:25:53.928Z,1.47
2023-05-01T04:28:56.886Z,1.42
2023-05-01T04:32:01.869Z,1.50
2023-05-01T04:35:05.152Z,1.30
2023-05-01T04:38:10.671Z,1.58
2023-05-01T04:41:14.567Z,1.30
2023-05-01T04:44:17.532Z,1.90
2023-05-01T04:47:21.006Z,1.70
2023-05-01T04:50:23.744Z,1.50
2023-05-01T04:53:26.842Z,1.77
2023-05-01T04:56:29.490Z,1.50
2023-05-01T04:59:36.277Z,1.40
2023-05-01T05:02:40.624Z,1.50
2023-05-01T05:05:43.837Z,1.60
2023-05-01T05:08:46.582Z,1.60
2023-05-01T05:11:49.362Z,1.20
2023-05-01T05:14:58.957Z,1.35
2023-05-01T05:18:01.858Z,1.77
2023-05-01T05:21:06.600Z,1.50
2023-05-01T05:24:09.356Z,1.60
2023-05-01T05:27:16.053Z,1.50
2023-05-01T05:30:19.131Z,1.80
2023-05-01T05:33:24.619Z,1.40
2023-05-01T05:36:27.944Z,1.80
2023-05-01T05:39:31.713Z,1.50
2023-05-01T05:42:34.483Z,1.50
2023-05-01T05:45:41.103Z,1.20
2023-05-01T05:48:44.425Z,1.55
2023-05-01T05:51:47.369Z,1.30
2023-05-01T05:54:51.906Z,1.52
2023-05-01T05:57:54.594Z,1.43
2023-05-01T06:00:59.201Z,1.50
2023-05-01T06:04:02.118Z,1.58
2023-05-01T06:07:06.494Z,1.85
2023-05-01T06:10:09.891Z,1.38
2023-05-01T06:13:14.693Z,1.70
2023-05-01T06:16:23.757Z,1.40
2023-05-01T06:19:26.779Z,1.58
2023-05-01T06:22:38.872Z,1.40
2023-05-01T06:25:49.716Z,1.50
2023-05-01T06:28:52.413Z,1.40
2023-05-01T06:31:56.249Z,1.60
2023-05-01T06:34:59.048Z,1.60
2023-05-01T06:38:02.870Z,1.60
2023-05-01T06:41:10.788Z,1.40
2023-05-01T06:44:13.560Z,1.73
2023-05-01T06:47:16.319Z,1.50
2023-05-01T06:50:19.298Z,1.40
2023-05-01T06:53:22.004Z,1.80
2023-05-01T06:56:24.897Z,1.80
2023-05-01T06:59:28.335Z,1.70
2023-05-01T07:02:31.212Z,1.90
2023-05-01T07:05:37.253Z,1.75
2023-05-01T07:08:40.568Z,1.70
2023-05-01T07:11:43.397Z,1.98
2023-05-01T07:14:46.569Z,1.60
2023-05-01T07:17:51.087Z,1.58
2023-05-01T07:20:53.946Z,1.70
2023-05-01T07:23:56.667Z,1.83
2023-05-01T07:27:00.202Z,1.60
2023-05-01T07:30:05.083Z,1.50
2023-05-01T07:33:08.063Z,1.70
2023-05-01T07:36:13.061Z,1.50
2023-05-01T07:39:18.965Z,1.40
2023-05-01T07:42:22.798Z,1.70
2023-05-01T07:45:25.963Z,1.80
2023-05-01T07:48:29.117Z,1.48
2023-05-01T07:51:32.576Z,1.90
2023-05-01T07:54:35.567Z,1.80
2023-05-01T07:57:38.844Z,1.80
2023-05-01T08:00:42.042Z,1.53
2023-05-01T08:03:44.942Z,1.02
2023-05-01T08:06:47.944Z,1.40
2023-05-01T08:09:50.808Z,1.60
2023-05-01T08:12:53.531Z,1.70
2023-05-01T08:15:59.306Z,1.53
2023-05-01T08:19:02.222Z,1.45
2023-05-01T08:22:04.977Z,1.80
2023-05-01T08:25:08.149Z,1.40
2023-05-01T08:28:10.993Z,1.70
2023-05-01T08:31:14.758Z,1.63
2023-05-01T08:34:17.848Z,1.40
2023-05-01T08:37:20.778Z,1.63
2023-05-01T08:40:27.510Z,1.52
2023-05-01T08:43:33.320Z,1.42
2023-05-01T08:46:48.878Z,1.40
2023-05-01T08:49:52.979Z,1.50
2023-05-01T08:52:58.747Z,1.40
2023-05-01T08:56:05.925Z,1.50
2023-05-01T08:59:10.046Z,1.83
2023-05-01T09:02:16.184Z,1.47
2023-05-01T09:05:20.485Z,1.30
2023-05-01T09:08:23.766Z,1.30
2023-05-01T09:11:26.781Z,1.67
2023-05-01T09:14:31.884Z,1.40
2023-05-01T09:17:46.092Z,1.50
2023-05-01T09:20:55.809Z,1.58
2023-05-01T09:23:58.702Z,1.27
2023-05-01T09:27:01.895Z,1.40
2023-05-01T09:30:06.849Z,1.70
2023-05-01T09:33:14.450Z,1.40
2023-05-01T09:36:18.636Z,1.20
2023-05-01T09:39:24.585Z,1.25
2023-05-01T09:42:27.416Z,1.55
2023-05-01T09:45:30.148Z,1.65
2023-05-01T09:48:35.946Z,1.30
2023-05-01T09:51:39.709Z,1.50
2023-05-01T09:54:43.651Z,1.75
2023-05-01T09:57:47.385Z,1.60
2023-05-01T10:00:50.279Z,1.33
2023-05-01T10:03:56.814Z,1.50
2023-05-01T10:07:11.886Z,1.30
2023-05-01T10:10:21.912Z,1.58
2023-05-01T10:13:24.684Z,1.40
2023-05-01T10:16:31.346Z,1.55
2023-05-01T10:19:34.162Z,1.50
2023-05-01T10:22:37.312Z,1.80
2023-05-01T10:25:42.325Z,1.50
2023-05-01T10:28:48.621Z,1.48
2023-05-01T10:31:51.508Z,1.40
2023-05-01T10:35:08.793Z,1.17
2023-05-01T10:38:23.027Z,1.70
2023-05-01T10:42:06.408Z,1.40
2023-05-01T10:45:31.094Z,1.30
2023-05-01T10:48:39.864Z,1.20
2023-05-01T10:52:03.998Z,1.40
2023-05-01T10:55:35.535Z,1.40
2023-05-01T10:58:43.611Z,1.50
2023-05-01T11:01:52.160Z,1.33
2023-05-01T11:04:59.295Z,1.50
2023-05-01T11:08:35.363Z,1.57
2023-05-01T11:11:38.089Z,1.27
2023-05-01T11:15:04.124Z,1.13
2023-05-01T11:18:08.955Z,1.48
2023-05-01T11:21:11.731Z,1.60
2023-05-01T11:24:14.582Z,1.10
2023-05-01T11:27:18.355Z,1.27
2023-05-01T11:30:22.741Z,1.58
2023-05-01T11:33:26.216Z,1.63
2023-05-01T11:36:30.522Z,1.70
2023-05-01T11:39:33.184Z,1.90
2023-05-01T11:42:35.983Z,1.23
2023-05-01T11:45:38.702Z,1.40
2023-05-01T11:48:41.865Z,1.35
2023-05-01T11:51:44.530Z,1.25
2023-05-01T11:54:48.295Z,1.40
2023-05-01T11:57:53.016Z,1.60
2023-05-01T12:00:55.882Z,1.40
2023-05-01T12:03:58.670Z,1.35
2023-05-01T12:07:01.937Z,1.40
2023-05-01T12:10:05.204Z,1.23
2023-05-01T12:13:10.416Z,1.23
2023-05-01T12:16:13.164Z,1.70
2023-05-01T12:19:16.597Z,1.67
2023-05-01T12:22:19.748Z,1.65
2023-05-01T12:25:22.787Z,1.30
2023-05-01T12:28:27.726Z,1.58
2023-05-01T12:31:31.159Z,1.40
2023-05-01T12:34:34.322Z,1.10
2023-05-01T12:37:37.129Z,1.40
2023-05-01T12:40:50.998Z,1.33
2023-05-01T12:43:53.940Z,1.33
2023-05-01T12:47:01.360Z,1.45
2023-05-01T12:50:05.265Z,1.70
2023-05-01T12:53:11.424Z,1.65
2023-05-01T12:56:25.079Z,1.20
2023-05-01T12:59:28.900Z,1.48
2023-05-01T13:02:33.305Z,1.25
2023-05-01T13:05:36.237Z,1.30
2023-05-01T13:08:40.591Z,1.42
2023-05-01T13:11:43.641Z,1.00
2023-05-01T13:14:46.607Z,1.55
2023-05-01T13:17:49.687Z,1.55
2023-05-01T13:20:52.649Z,1.30
2023-05-01T13:24:00.093Z,1.52
2023-05-01T13:27:05.060Z,1.30
2023-05-01T13:30:08.683Z,1.35
2023-05-01T13:33:11.472Z,1.08
2023-05-01T13:36:25.178Z,1.55
2023-05-01T13:39:29.517Z,1.20
2023-05-01T13:42:32.294Z,1.40
2023-05-01T13:45:35.249Z,1.52
2023-05-01T13:48:41.135Z,1.17
2023-05-01T13:51:46.059Z,1.58
2023-05-01T13:54:49.375Z,1.83
2023-05-01T13:57:52.123Z,1.50
2023-05-01T14:00:55.487Z,1.58
2023-05-01T14:04:00.609Z,1.50
2023-05-01T14:07:03.450Z,1.40
2023-05-01T14:10:09.012Z,1.60
2023-05-01T14:13:14.101Z,1.30
2023-05-01T14:16:31.501Z,1.50
2023-05-01T14:19:47.656Z,1.35
2023-05-01T14:22:54.966Z,1.45
2023-05-01T14:25:57.634Z,1.38
2023-05-01T14:29:00.608Z,1.10
2023-05-01T14:32:04.435Z,1.30
2023-05-01T14:35:10.166Z,1.73
2023-05-01T14:38:15.144Z,1.50
2023-05-01T14:41:21.256Z,1.40
2023-05-01T14:44:29.154Z,1.33
2023-05-01T14:47:31.981Z,1.40
2023-05-01T14:50:34.847Z,1.60
2023-05-01T14:53:42.063Z,1.70
2023-05-01T14:56:46.764Z,2.10
2023-05-01T14:59:49.629Z,1.30
2023-05-01T15:02:52.615Z,1.65
2023-05-01T15:05:56.769Z,1.50
2023-05-01T15:08:59.620Z,1.70
2023-05-01T15:12:05.536Z,1.60
2023-05-01T15:15:10.040Z,1.47
2023-05-01T15:18:12.970Z,1.42
2023-05-01T15:21:15.827Z,1.40
2023-05-01T15:24:19.782Z,1.48
2023-05-01T15:27:22.541Z,1.45
2023-05-01T15:30:25.323Z,1.40
2023-05-01T15:33:28.489Z,1.50
2023-05-01T15:36:32.211Z,1.50
2023-05-01T15:39:34.935Z,1.45
2023-05-01T15:42:37.770Z,1.50
2023-05-01T15:45:43.630Z,1.17
2023-05-01T15:48:47.345Z,1.23
2023-05-01T15:51:50.166Z,1.35
2023-05-01T15:54:52.886Z,1.55
2023-05-01T15:57:55.713Z,1.45
2023-05-01T16:00:58.588Z,1.30
2023-05-01T16:04:03.164Z,1.70
2023-05-01T16:07:07.746Z,1.50
2023-05-01T16:10:10.753Z,1.40
2023-05-01T16:13:14.364Z,1.60
2023-05-01T16:16:22.862Z,1.63
2023-05-01T16:19:29.481Z,1.40
2023-05-01T16:22:32.925Z,1.40
2023-05-01T16:25:35.769Z,1.25
2023-05-01T16:28:38.818Z,1.50
2023-05-01T16:31:47.420Z,1.60
2023-05-01T16:34:50.503Z,1.30
2023-05-01T16:37:53.423Z,1.50
2023-05-01T16:40:56.227Z,1.40
2023-05-01T16:43:59.982Z,1.45
2023-05-01T16:47:03.650Z,1.20
2023-05-01T16:50:08.980Z,1.70
2023-05-01T16:53:11.817Z,1.67
2023-05-01T16:56:16.573Z,1.65
2023-05-01T16:59:19.324Z,1.25
2023-05-01T17:02:22.304Z,1.80
2023-05-01T17:05:25.953Z,1.85
2023-05-01T17:08:28.968Z,1.80
2023-05-01T17:11:32.149Z,1.40
2023-05-01T17:14:34.958Z,1.60
2023-05-01T17:17:37.974Z,1.83
2023-05-01T17:20:41.306Z,1.77
2023-05-01T17:23:44.791Z,1.50
2023-05-01T17:26:47.707Z,1.38
2023-05-01T17:29:50.563Z,1.70
2023-05-01T17:32:53.790Z,1.40
2023-05-01T17:35:59.770Z,1.50
2023-05-01T17:39:02.726Z,1.90
2023-05-01T17:42:05.698Z,1.60
2023-05-01T17:45:10.455Z,1.80
2023-05-01T17:48:13.342Z,1.97
2023-05-01T17:51:16.383Z,1.85
2023-05-01T17:54:19.674Z,1.75
2023-05-01T17:57:22.386Z,1.95
2023-05-01T18:00:27.800Z,1.73
2023-05-01T18:03:34.493Z,1.93
2023-05-01T18:06:37.439Z,1.95
2023-05-01T18:09:40.758Z,2.33
2023-05-01T18:12:45.938Z,2.08
2023-05-01T18:15:51.881Z,1.80
2023-05-01T18:18:55.161Z,1.60
2023-05-01T18:21:59.652Z,1.80
2023-05-01T18:25:02.913Z,2.10
2023-05-01T18:28:06.665Z,1.98
2023-05-01T18:31:10.056Z,1.70
2023-05-01T18:34:14.033Z,2.30
2023-05-01T18:37:18.160Z,2.03
2023-05-01T18:40:22.134Z,2.22
2023-05-01T18:43:25.424Z,1.75
2023-05-01T18:46:29.312Z,2.25
2023-05-01T18:49:32.748Z,1.90
2023-05-01T18:52:37.668Z,1.77
2023-05-01T18:55:41.233Z,2.33
2023-05-01T18:58:44.905Z,2.00
2023-05-01T19:01:50.829Z,2.00
2023-05-01T19:04:57.983Z,1.90
2023-05-01T19:08:05.747Z,2.10
2023-05-01T19:11:10.081Z,2.35
2023-05-01T19:14:13.853Z,2.35
2023-05-01T19:17:18.222Z,2.30
2023-05-01T19:20:21.821Z,2.50
2023-05-01T19:23:25.479Z,2.70
2023-05-01T19:26:30.499Z,2.78
2023-05-01T19:29:35.495Z,2.90
2023-05-01T19:32:41.011Z,2.40
2023-05-01T19:35:44.867Z,2.73
2023-05-01T19:38:48.896Z,2.67
2023-05-01T19:41:54.741Z,2.58
2023-05-01T19:44:59.083Z,2.55
2023-05-01T19:48:03.002Z,2.53
2023-05-01T19:51:11.092Z,2.43
2023-05-01T19:54:15.015Z,2.42
2023-05-01T19:57:18.580Z,2.50
2023-05-01T20:00:22.181Z,2.25
2023-05-01T20:03:25.461Z,2.78
2023-05-01T20:06:28.545Z,2.60
2023-05-01T20:09:34.659Z,2.42
2023-05-01T20:12:39.280Z,2.00
2023-05-01T20:15:43.299Z,2.25
2023-05-01T20:18:46.877Z,2.50
2023-05-01T20:21:49.738Z,2.33
2023-05-01T20:24:52.672Z,2.53
2023-05-01T20:27:55.834Z,2.40
2023-05-01T20:30:58.919Z,2.60
2023-05-01T20:34:01.869Z,2.72
2023-05-01T20:37:05.059Z,2.70
2023-05-01T20:40:28.643Z,2.20
2023-05-01T20:43:39.963Z,2.22
2023-05-01T20:46:44.254Z,2.30
2023-05-01T20:49:47.044Z,2.00
2023-05-01T20:52:51.526Z,2.60
2023-05-01T20:55:54.384Z,2.30
2023-05-01T20:58:57.291Z,2.58
2023-05-01T21:02:04.420Z,2.20
2023-05-01T21:05:11.786Z,2.83
2023-05-01T21:08:18.169Z,2.60
2023-05-01T21:11:21.478Z,1.90
2023-05-01T21:14:24.227Z,2.63
2023-05-01T21:17:26.948Z,2.40
2023-05-01T21:20:33.158Z,2.20
2023-05-01T21:23:36.704Z,2.40
2023-05-01T21:26:39.554Z,2.30
2023-05-01T21:29:42.275Z,2.65
2023-05-01T21:32:45.446Z,2.10
2023-05-01T21:35:48.615Z,2.38
2023-05-01T21:38:51.615Z,2.23
2023-05-01T21:41:54.898Z,2.30
2023-05-01T21:45:05.630Z,2.50
2023-05-01T21:48:09.495Z,2.55
2023-05-01T21:51:12.212Z,2.33
2023-05-01T21:54:17.831Z,2.10
2023-05-01T21:57:21.678Z,2.45
2023-05-01T22:00:24.808Z,2.47
2023-05-01T22:03:27.912Z,2.15
2023-05-01T22:06:30.747Z,2.22
2023-05-01T22:09:33.705Z,2.60
2023-05-01T22:12:36.661Z,2.00
2023-05-01T22:15:39.705Z,2.33
2023-05-01T22:18:42.488Z,2.40
2023-05-01T22:21:45.557Z,2.55
2023-05-01T22:24:48.327Z,2.20
2023-05-01T22:27:51.029Z,1.90
2023-05-01T22:30:54.544Z,2.22
2023-05-01T22:33:57.268Z,2.20
2023-05-01T22:36:59.994Z,2.45
2023-05-01T22:40:03.638Z,1.87
2023-05-01T22:43:06.952Z,2.17
2023-05-01T22:46:09.691Z,2.10
2023-05-01T22:49:12.630Z,2.60
2023-05-01T22:52:15.630Z,2.25
2023-05-01T22:55:18.414Z,2.30
2023-05-01T22:58:21.207Z,2.25
2023-05-01T23:01:23.976Z,2.10
2023-05-01T23:04:26.943Z,2.05
2023-05-01T23:07:29.606Z,2.30
2023-05-01T23:10:33.863Z,2.20
2023-05-01T23:13:37.429Z,2.30
2023-05-01T23:16:44.724Z,2.20
2023-05-01T23:19:47.934Z,2.28
2023-05-01T23:22:51.475Z,2.33
2023-05-01T23:25:54.934Z,2.07
2023-05-01T23:28:57.949Z,2.10
2023-05-01T23:32:00.994Z,2.42
2023-05-01T23:35:14.067Z,2.03
2023-05-01T23:38:16.974Z,2.20
2023-05-01T23:41:20.064Z,2.30
2023-05-01T23:44:23.294Z,2.50
2023-05-01T23:47:27.461Z,2.05
2023-05-01T23:50:30.792Z,2.05
2023-05-01T23:53:36.660Z,2.00
2023-05-01T23:56:39.497Z,2.03
2023-05-01T23:59:42.531Z,1.73
